KFAM/FAM METAR and TAF weather

Enter ICAO airport designator
Station Type Date Time Source
KFAM METAR 2020/03/28 13:56 UTC NOAA

KFAM 281356Z AUTO 18012KT 10SM SCT110 20/19 A2972 RMK AO2 SLP067 T02000189


Station Type Date Time Source
KFAM Decoded METAR 2020/03/28 13:56 UTC NOAA

Farmington Airport, MO, United States (KFAM) 37-46N 090-26W
Mar 28, 2020 - 09:56 AM EDT / 2020.03.28 1356 UTC
Wind: from the S (180 degrees) at 14 MPH (12 KT):0
Visibility: 10 mile(s):0
Sky conditions: partly cloudy
Temperature: 68.0 F (20.0 C)
Dew Point: 66.0 F (18.9 C)
Relative Humidity: 93%
Pressure (altimeter): 29.72 in. Hg (1006 hPa)
ob: KFAM 281356Z AUTO 18012KT 10SM SCT110 20/19 A2972 RMK AO2 SLP067 T02000189
cycle: 14

Station Type Date Time Source
KFAM TAF UTC NOAA

Error!

Example: see airport list